Time;durP1;ratioP1;P1;durP2;ratioP2;P2;SDS_P1;SDS_P2;PMS_P1;PMS_P2;Temp;Humidity;BMP_temperature;BMP_pressure;BME280_temperature;BME280_humidity;BME280_pressure;Samples;Min_cycle;Max_cycle;Signal;HPM_P1;HPM_P2
2022/09/24 00:01:15;;;;;;;7.18;4.05;;;;;;;11.40;73.68;98935.06;4897159;29;20044;-82
2022/09/24 00:03:46;;;;;;;7.05;4.30;;;;;;;11.39;73.78;98933.34;4901983;29;20056;-84
2022/09/24 00:06:17;;;;;;;5.13;3.80;;;;;;;11.17;73.79;98884.44;4911627;29;20044;-82
2022/09/24 00:08:48;;;;;;;5.50;3.75;;;;;;;11.14;73.75;98884.50;4902528;29;20104;-82
2022/09/24 00:11:17;;;;;;;5.70;3.53;;;;;;;11.40;74.11;98914.22;4910534;29;20044;-82
2022/09/24 00:13:43;;;;;;;7.13;4.15;;;;;;;11.25;74.12;98882.50;4893258;29;20054;-83
2022/09/24 00:16:11;;;;;;;5.45;3.65;;;;;;;11.10;74.09;98860.31;4897820;29;20048;-83
2022/09/24 00:18:38;;;;;;;5.47;3.70;;;;;;;11.28;73.19;98897.16;4892817;29;20120;-83
2022/09/24 00:21:20;;;;;;;5.88;3.70;;;;;;;11.08;74.19;98863.81;4895226;29;20048;-84
2022/09/24 00:23:52;;;;;;;5.63;3.40;;;;;;;11.14;74.00;98871.47;4896269;29;20108;-83
2022/09/24 00:29:05;;;;;;;5.55;3.30;;;;;;;10.90;74.62;98823.53;4898374;29;20135;-84
2022/09/24 00:31:31;;;;;;;6.55;3.20;;;;;;;11.10;74.41;98852.50;4895959;29;20065;-83
2022/09/24 00:33:58;;;;;;;4.82;3.40;;;;;;;11.03;74.85;98843.13;4898968;29;20048;-82
2022/09/24 00:36:24;;;;;;;6.50;3.45;;;;;;;10.73;74.66;98784.91;4894085;29;20914;-82
2022/09/24 00:38:53;;;;;;;6.75;3.83;;;;;;;11.14;74.87;98845.44;4898172;29;20058;-82
2022/09/24 00:41:20;;;;;;;4.97;3.40;;;;;;;11.19;75.28;98832.31;4910121;29;20048;-82
2022/09/24 00:43:48;;;;;;;6.47;3.80;;;;;;;10.78;75.19;98759.63;4917972;29;20161;-82
2022/09/24 00:46:39;;;;;;;5.78;3.50;;;;;;;10.96;75.21;98782.56;4892779;29;20047;-83
2022/09/24 00:49:11;;;;;;;;;;;;;;;11.17;75.00;98821.94;4895313;29;20058;-82
2022/09/24 00:51:38;;;;;;;5.10;2.85;;;;;;;11.17;75.08;98827.16;4894091;29;20156;-82
2022/09/24 00:54:08;;;;;;;4.28;3.17;;;;;;;11.15;74.83;98811.53;4899668;29;20041;-81
2022/09/24 00:56:38;;;;;;;5.07;3.00;;;;;;;11.03;75.41;98780.66;4902178;29;20040;-82
2022/09/24 00:59:07;;;;;;;3.83;3.03;;;;;;;11.21;75.43;98794.06;4893848;29;20096;-81
2022/09/24 01:01:33;;;;;;;4.60;3.05;;;;;;;11.11;75.42;98775.22;4893899;29;20204;-80
2022/09/24 01:04:02;;;;;;;3.60;3.05;;;;;;;11.06;75.37;98754.53;4899695;29;20192;-82
2022/09/24 01:06:28;;;;;;;3.72;2.88;;;;;;;11.20;75.15;98768.91;4884107;29;20055;-83
2022/09/24 01:08:57;;;;;;;4.45;3.10;;;;;;;11.32;75.18;98780.75;4875516;29;20148;-82
2022/09/24 01:11:47;;;;;;;4.28;3.00;;;;;;;11.30;75.70;98768.63;4891252;29;20191;-83
2022/09/24 01:14:16;;;;;;;5.10;2.63;;;;;;;11.42;75.76;98775.22;4904902;29;20053;-83
2022/09/24 01:17:09;;;;;;;4.80;3.20;;;;;;;11.22;75.32;98741.09;4891491;29;20056;-82
2022/09/24 01:19:56;;;;;;;5.43;2.55;;;;;;;11.12;75.57;98719.66;4870140;29;20128;-83
2022/09/24 01:22:59;;;;;;;3.22;2.38;;;;;;;11.07;75.64;98706.78;4905394;29;20124;-81
2022/09/24 01:25:46;;;;;;;4.03;2.38;;;;;;;11.44;75.78;98752.59;4889318;29;20419;-81
2022/09/24 01:28:37;;;;;;;3.50;2.15;;;;;;;11.31;75.84;98722.59;4905679;29;20044;-83
2022/09/24 01:31:14;;;;;;;3.08;2.13;;;;;;;11.23;76.00;98706.34;4885666;29;20051;-81
2022/09/24 01:33:43;;;;;;;3.00;2.05;;;;;;;11.49;75.59;98733.38;4889186;29;20468;-81
2022/09/24 01:36:13;;;;;;;3.17;1.80;;;;;;;11.10;75.67;98674.59;4885621;29;20139;-80
2022/09/24 01:38:44;;;;;;;2.90;1.60;;;;;;;11.34;75.74;98706.88;4889225;29;20043;-81
2022/09/24 01:41:12;;;;;;;2.88;1.73;;;;;;;11.37;75.72;98718.97;4885191;29;20481;-83
2022/09/24 01:43:38;;;;;;;4.80;1.70;;;;;;;11.36;75.84;98710.31;4889152;29;20037;-82
2022/09/24 01:46:06;;;;;;;4.60;2.78;;;;;;;11.29;75.52;98693.97;4889007;29;20063;-82
2022/09/24 01:48:36;;;;;;;1.73;1.30;;;;;;;11.39;75.72;98706.75;4890215;29;20036;-80
2022/09/24 01:51:25;;;;;;;2.53;1.65;;;;;;;11.05;75.12;98651.31;4888359;29;20144;-82
2022/09/24 01:54:03;;;;;;;1.52;1.23;;;;;;;11.35;75.71;98692.97;4890987;29;20599;-83
2022/09/24 01:56:49;;;;;;;1.85;1.25;;;;;;;11.38;75.96;98697.22;4889655;29;20171;-81
2022/09/24 01:59:39;;;;;;;1.95;1.45;;;;;;;11.20;75.62;98650.00;4893145;29;20043;-80
2022/09/24 02:02:05;;;;;;;1.98;1.40;;;;;;;11.42;75.72;98686.66;4895922;29;20053;-84
2022/09/24 02:04:49;;;;;;;1.60;1.30;;;;;;;11.41;75.62;98677.13;4897477;29;20070;-83
2022/09/24 02:07:28;;;;;;;2.15;1.50;;;;;;;11.38;75.12;98674.63;4898820;29;20131;-83
2022/09/24 02:09:54;;;;;;;2.58;1.30;;;;;;;11.12;75.64;98633.75;4897000;29;20040;-81
2022/09/24 02:12:42;;;;;;;1.80;1.20;;;;;;;11.28;75.66;98662.78;4900475;29;20132;-82
2022/09/24 02:15:16;;;;;;;1.30;1.00;;;;;;;11.02;75.53;98635.78;4896461;29;20539;-83
2022/09/24 02:17:47;;;;;;;1.50;1.25;;;;;;;10.91;75.52;98604.84;4892920;29;20047;-85
2022/09/24 02:20:19;;;;;;;1.65;1.23;;;;;;;11.12;75.55;98644.16;4890612;29;20600;-83
2022/09/24 02:22:45;;;;;;;;;;;;;;;11.25;75.69;98652.47;4904968;29;20512;-82
2022/09/24 02:25:17;;;;;;;1.83;1.20;;;;;;;11.08;75.86;98612.16;4887009;29;19942;-85
2022/09/24 02:27:43;;;;;;;1.20;0.93;;;;;;;11.35;75.68;98640.88;4892878;29;20049;-84
2022/09/24 02:30:10;;;;;;;1.67;1.10;;;;;;;11.36;75.84;98639.13;4891132;29;20107;-84
2022/09/24 02:32:42;;;;;;;3.22;1.30;;;;;;;11.36;75.55;98633.91;4894390;29;20127;-82
2022/09/24 02:35:09;;;;;;;4.97;1.10;;;;;;;11.35;75.52;98632.19;4890152;29;20059;-82
2022/09/24 02:37:38;;;;;;;1.20;1.05;;;;;;;11.11;75.43;98591.25;4889926;29;20100;-82
2022/09/24 02:40:08;;;;;;;1.55;1.00;;;;;;;11.28;75.00;98631.53;4885118;29;21134;-83
2022/09/24 02:42:35;;;;;;;1.55;0.95;;;;;;;10.90;75.14;98586.69;4900171;29;20040;-82
2022/09/24 02:45:03;;;;;;;2.33;0.98;;;;;;;11.06;75.31;98610.50;4887714;29;20476;-83
2022/09/24 02:47:29;;;;;;;1.38;1.02;;;;;;;10.89;74.72;98577.19;4891110;29;20071;-80
2022/09/24 02:49:55;;;;;;;1.77;1.02;;;;;;;11.11;75.47;98611.22;4892412;29;20040;-81
2022/09/24 02:52:22;;;;;;;1.15;0.80;;;;;;;11.17;75.92;98617.97;4887001;29;20052;-81
2022/09/24 02:54:51;;;;;;;2.08;1.00;;;;;;;10.89;75.86;98564.16;4890900;29;20071;-82
2022/09/24 02:57:17;;;;;;;1.20;1.00;;;;;;;10.95;75.75;98563.97;4885625;29;20660;-83
2022/09/24 02:59:44;;;;;;;2.25;0.90;;;;;;;11.21;75.28;98612.66;4889507;29;20049;-82
2022/09/24 03:02:10;;;;;;;1.10;1.00;;;;;;;11.15;75.57;98592.00;4889618;29;20441;-83
2022/09/24 03:04:37;;;;;;;1.35;1.20;;;;;;;11.22;75.67;98606.56;4889029;29;20551;-82
2022/09/24 03:07:04;;;;;;;1.38;0.98;;;;;;;11.15;75.75;98590.25;4892949;29;20048;-80
2022/09/24 03:09:30;;;;;;;1.98;1.30;;;;;;;11.21;76.20;98597.03;4894205;29;20040;-82
2022/09/24 03:11:59;;;;;;;1.00;0.90;;;;;;;11.20;76.08;98576.22;4877306;29;20041;-81
2022/09/24 03:14:26;;;;;;;0.85;0.75;;;;;;;10.97;75.57;98539.59;4892938;29;20059;-80
2022/09/24 03:16:52;;;;;;;1.88;1.20;;;;;;;11.36;75.75;98595.72;4893877;29;20036;-83
2022/09/24 03:19:18;;;;;;;2.30;1.10;;;;;;;11.12;75.60;98553.03;4897940;29;20568;-83
2022/09/24 03:21:45;;;;;;;1.60;1.30;;;;;;;11.21;75.37;98551.91;4895860;29;20045;-81
2022/09/24 03:24:11;;;;;;;13.98;8.20;;;;;;;11.20;75.92;98548.47;4893892;29;20055;-82
2022/09/24 03:26:36;;;;;;;1.63;1.10;;;;;;;11.07;75.66;98539.31;4903737;29;20045;-83
2022/09/24 03:29:03;;;;;;;3.70;0.90;;;;;;;11.08;75.61;98551.44;4896185;29;20044;-86
2022/09/24 03:31:29;;;;;;;1.75;0.90;;;;;;;11.04;75.38;98542.88;4903949;29;20064;-82
2022/09/24 03:33:56;;;;;;;1.80;0.80;;;;;;;11.10;75.58;98575.66;4904753;29;20037;-83
2022/09/24 03:36:24;;;;;;;0.90;0.75;;;;;;;11.04;75.40;98555.88;4894922;29;20047;-81
2022/09/24 03:38:54;;;;;;;0.70;0.70;;;;;;;11.06;75.82;98556.69;4893068;29;20135;-80
2022/09/24 03:41:20;;;;;;;1.27;0.80;;;;;;;10.90;75.68;98542.44;4898410;29;20060;-81
2022/09/24 03:43:46;;;;;;;3.05;1.13;;;;;;;10.94;75.96;98538.84;4896752;29;20055;-83
2022/09/24 03:46:14;;;;;;;2.92;1.15;;;;;;;11.02;75.31;98556.84;4877895;29;20044;-80
2022/09/24 03:48:41;;;;;;;1.17;1.00;;;;;;;10.83;75.58;98511.41;4878312;29;20047;-82
2022/09/24 03:51:17;;;;;;;0.98;0.82;;;;;;;10.72;75.44;98490.03;4876472;29;20044;-84
2022/09/24 03:53:43;;;;;;;0.90;0.70;;;;;;;10.80;75.53;98498.47;4895965;29;20051;-84
2022/09/24 03:56:11;;;;;;;1.35;1.10;;;;;;;10.98;75.39;98533.50;4872796;29;20524;-87
2022/09/24 03:58:38;;;;;;;1.67;0.90;;;;;;;10.62;75.46;98486.88;4894340;29;20052;-87
2022/09/24 04:01:06;;;;;;;0.93;0.90;;;;;;;10.55;75.62;98477.56;4895888;29;20099;-86
2022/09/24 04:03:32;;;;;;;1.15;0.80;;;;;;;10.83;75.54;98519.22;4891100;29;20060;-84
2022/09/24 04:05:58;;;;;;;1.73;0.85;;;;;;;10.66;75.75;98487.66;4893906;29;20354;-85
2022/09/24 04:08:24;;;;;;;3.30;0.82;;;;;;;10.56;75.44;98471.47;4896078;29;20052;-84
2022/09/24 04:10:50;;;;;;;0.75;0.75;;;;;;;10.55;74.90;98474.97;4892935;29;20044;-85
2022/09/24 04:13:18;;;;;;;0.93;0.75;;;;;;;10.88;75.89;98516.47;4901077;29;20056;-81
2022/09/24 04:15:44;;;;;;;1.15;0.60;;;;;;;10.72;75.69;98477.03;4895587;29;20044;-82
2022/09/24 04:18:10;;;;;;;0.73;0.65;;;;;;;10.90;75.68;98506.03;4891416;29;20048;-80
2022/09/24 04:20:37;;;;;;;1.30;0.75;;;;;;;10.71;75.41;98464.94;4892324;29;20058;-82
2022/09/24 04:23:03;;;;;;;1.65;0.88;;;;;;;10.87;75.87;98480.09;4893827;29;20068;-81
2022/09/24 04:25:31;;;;;;;0.88;0.70;;;;;;;10.72;75.31;98439.78;4875405;29;20048;-82
2022/09/24 04:27:59;;;;;;;1.67;0.80;;;;;;;10.97;75.79;98482.34;4892292;29;20083;-81
2022/09/24 04:30:27;;;;;;;0.93;0.75;;;;;;;11.00;75.34;98487.47;4892675;29;20049;-83
2022/09/24 04:32:53;;;;;;;1.27;0.80;;;;;;;10.93;75.37;98466.84;4896638;29;20056;-82
2022/09/24 04:35:21;;;;;;;1.73;0.80;;;;;;;11.03;75.55;98465.69;4907561;29;20050;-82
2022/09/24 04:37:48;;;;;;;2.05;1.05;;;;;;;10.99;75.66;98459.72;4916496;29;20425;-83
2022/09/24 04:40:15;;;;;;;0.95;0.80;;;;;;;11.09;75.74;98459.41;4894991;29;20477;-84
2022/09/24 04:42:43;;;;;;;1.73;0.85;;;;;;;10.94;75.16;98427.78;4900465;29;20036;-81
2022/09/24 04:45:10;;;;;;;0.93;0.90;;;;;;;10.90;75.33;98404.53;4907981;29;20052;-83
2022/09/24 04:47:39;;;;;;;2.17;0.95;;;;;;;10.89;75.30;98410.63;4891185;29;20115;-82
2022/09/24 04:50:08;;;;;;;1.15;0.85;;;;;;;11.04;75.37;98443.09;4876099;29;21354;-82
2022/09/24 04:52:34;;;;;;;19.85;11.60;;;;;;;10.85;75.44;98405.53;4891945;29;20406;-83
2022/09/24 04:55:11;;;;;;;3.13;2.17;;;;;;;10.95;75.56;98405.19;4906868;29;20048;-82
2022/09/24 04:57:40;;;;;;;1.60;1.40;;;;;;;10.98;75.21;98420.72;4866878;29;20040;-81
2022/09/24 05:00:13;;;;;;;2.78;0.90;;;;;;;10.93;75.71;98391.38;4897154;29;20100;-82
2022/09/24 05:02:42;;;;;;;4.10;1.00;;;;;;;10.99;74.89;98407.69;4908138;29;20059;-84
2022/09/24 05:05:12;;;;;;;1.15;0.77;;;;;;;10.91;75.56;98399.25;4899082;29;20428;-82
2022/09/24 05:07:43;;;;;;;0.70;0.60;;;;;;;10.85;75.65;98379.50;4868425;29;20077;-81
2022/09/24 05:10:11;;;;;;;0.90;0.73;;;;;;;11.08;75.42;98408.25;4863069;29;20055;-81
2022/09/24 05:12:42;;;;;;;1.25;0.60;;;;;;;10.81;75.42;98351.88;4895953;29;20075;-83
2022/09/24 05:15:08;;;;;;;1.63;0.63;;;;;;;11.04;75.36;98381.47;4897846;29;20080;-80
2022/09/24 05:17:39;;;;;;;1.13;0.50;;;;;;;10.96;75.03;98368.72;4885346;29;20494;-83
2022/09/24 05:20:09;;;;;;;0.75;0.50;;;;;;;10.72;74.93;98330.50;4848709;29;20045;-81
2022/09/24 05:22:36;;;;;;;1.13;0.60;;;;;;;10.85;75.16;98356.06;4895627;29;20403;-84
2022/09/24 05:25:02;;;;;;;0.50;0.50;;;;;;;10.67;75.67;98317.66;4887438;29;20049;-86
2022/09/24 05:27:29;;;;;;;1.13;0.75;;;;;;;10.74;74.95;98332.16;4889879;29;20065;-81
2022/09/24 05:29:55;;;;;;;1.42;0.68;;;;;;;10.77;74.54;98342.47;4898361;29;20036;-83
2022/09/24 05:32:22;;;;;;;1.17;0.60;;;;;;;10.55;75.69;98311.09;4910981;29;20520;-84
2022/09/24 05:34:49;;;;;;;0.50;0.47;;;;;;;10.87;75.66;98358.63;4891633;29;20040;-85
2022/09/24 05:37:17;;;;;;;0.55;0.50;;;;;;;10.35;74.68;98270.97;4921440;29;20075;-83
2022/09/24 05:39:43;;;;;;;0.70;0.40;;;;;;;10.59;75.65;98301.44;4886399;29;20040;-85
2022/09/24 05:42:13;;;;;;;0.60;0.50;;;;;;;10.92;75.77;98338.50;4894417;29;20088;-83
2022/09/24 05:44:39;;;;;;;0.85;0.60;;;;;;;10.74;75.69;98305.28;4898030;29;20040;-84
2022/09/24 05:47:05;;;;;;;0.68;0.50;;;;;;;10.60;75.81;98270.16;4892836;29;20057;-85
2022/09/24 05:49:34;;;;;;;5.47;1.80;;;;;;;10.98;75.52;98337.44;4885226;29;20052;-86
2022/09/24 05:52:01;;;;;;;1.58;1.13;;;;;;;10.82;75.59;98305.88;4900756;29;20461;-86
2022/09/24 05:54:27;;;;;;;0.93;0.70;;;;;;;10.81;75.40;98305.03;4886834;29;20040;-84
2022/09/24 05:56:59;;;;;;;1.40;0.63;;;;;;;10.68;75.69;98275.97;4898992;29;20051;-85
2022/09/24 05:59:25;;;;;;;1.75;0.50;;;;;;;10.88;75.51;98316.06;4900118;29;20080;-82
2022/09/24 06:01:51;;;;;;;0.52;0.50;;;;;;;10.73;75.62;98275.81;4898524;29;20056;-83
2022/09/24 06:04:17;;;;;;;1.30;0.50;;;;;;;10.77;75.66;98272.22;4888283;29;20072;-82
2022/09/24 06:06:44;;;;;;;1.80;0.60;;;;;;;10.97;75.83;98300.16;4897706;29;20044;-84
2022/09/24 06:09:11;;;;;;;0.80;0.68;;;;;;;10.80;75.50;98255.66;4860580;29;20072;-85
2022/09/24 06:11:37;;;;;;;2.20;0.80;;;;;;;11.03;75.57;98287.84;4892153;29;20063;-85
2022/09/24 06:14:04;;;;;;;0.70;0.63;;;;;;;11.02;75.36;98284.38;4907633;29;20044;-84
2022/09/24 06:16:33;;;;;;;2.45;0.60;;;;;;;10.92;75.46;98260.44;4892658;29;20405;-83
2022/09/24 06:18:59;;;;;;;1.00;0.80;;;;;;;11.07;75.19;98282.47;4888914;29;20439;-84
2022/09/24 06:21:26;;;;;;;1.15;0.60;;;;;;;11.08;75.37;98302.41;4897375;29;20099;-82
2022/09/24 06:23:52;;;;;;;1.55;0.80;;;;;;;10.76;75.56;98247.09;4894018;29;20629;-84
2022/09/24 06:26:18;;;;;;;3.13;0.85;;;;;;;11.08;75.46;98291.97;4886645;29;20071;-84
2022/09/24 06:28:44;;;;;;;2.00;0.88;;;;;;;10.83;75.15;98255.53;4894462;29;20986;-85
2022/09/24 06:31:13;;;;;;;2.00;0.70;;;;;;;11.01;75.30;98285.28;4896355;29;20037;-85
2022/09/24 06:33:39;;;;;;;1.55;0.80;;;;;;;10.72;75.28;98232.47;4894439;29;20076;-85
2022/09/24 06:36:06;;;;;;;0.95;0.70;;;;;;;10.80;75.38;98242.66;4895611;29;21182;-85
2022/09/24 06:38:32;;;;;;;1.05;0.70;;;;;;;10.80;75.31;98247.84;4901503;29;20112;-82
2022/09/24 06:41:03;;;;;;;6.15;5.63;;;;;;;10.92;75.19;98270.84;4886759;29;20082;-86
2022/09/24 06:43:36;;;;;;;23.95;22.05;;;;;;;11.06;75.52;98277.31;4881164;29;20365;-83
2022/09/24 06:46:03;;;;;;;7.32;6.75;;;;;;;10.95;75.25;98259.47;4898304;29;20139;-83
2022/09/24 06:48:37;;;;;;;2.00;1.05;;;;;;;11.03;75.04;98264.41;4897678;29;20054;-83
2022/09/24 06:51:04;;;;;;;1.27;0.98;;;;;;;11.05;75.24;98260.84;4901667;29;20052;-84
2022/09/24 06:53:30;;;;;;;0.80;0.70;;;;;;;10.98;75.16;98242.00;4875700;29;20036;-83
2022/09/24 06:56:02;;;;;;;1.50;0.50;;;;;;;11.09;74.98;98262.44;4900808;29;20056;-85
2022/09/24 06:58:32;;;;;;;1.35;0.70;;;;;;;10.99;74.42;98250.66;4898073;29;20112;-84
2022/09/24 07:01:35;;;;;;;0.45;0.45;;;;;;;10.57;74.90;98165.38;4898573;29;20056;-82
2022/09/24 07:04:23;;;;;;;0.77;0.65;;;;;;;10.60;74.98;98160.91;4909872;29;20060;-84
2022/09/24 07:09:35;;;;;;;1.40;0.80;;;;;;;10.94;75.00;98197.91;4892486;29;20047;-82
2022/09/24 07:12:07;;;;;;;2.58;0.85;;;;;;;11.11;74.42;98216.38;4879695;29;20052;-87
2022/09/24 07:14:34;;;;;;;1.85;0.85;;;;;;;11.05;74.43;98200.97;4876033;29;20053;-84
2022/09/24 07:17:00;;;;;;;1.83;1.10;;;;;;;11.36;74.71;98249.34;4898286;29;20040;-86
2022/09/24 07:19:29;;;;;;;2.67;1.30;;;;;;;11.30;74.91;98228.72;4897303;29;20147;-85
2022/09/24 07:21:55;;;;;;;2.03;1.40;;;;;;;11.16;74.28;98205.78;4866094;29;20144;-85
2022/09/24 07:24:22;;;;;;;2.70;1.00;;;;;;;11.18;74.63;98203.13;4882555;29;20052;-85
2022/09/24 07:26:48;;;;;;;2.13;1.20;;;;;;;11.22;74.76;98200.38;4895723;29;20057;-84
2022/09/24 07:29:20;;;;;;;1.85;1.20;;;;;;;11.30;74.76;98202.69;4894972;29;20054;-85
2022/09/24 07:31:46;;;;;;;2.92;1.10;;;;;;;11.44;74.31;98233.44;4893050;29;20054;-85
2022/09/24 07:34:15;;;;;;;1.77;1.02;;;;;;;11.21;74.76;98190.84;4900208;29;20064;-84
2022/09/24 07:36:42;;;;;;;2.45;1.00;;;;;;;11.29;74.64;98187.97;4888446;29;20052;-84
2022/09/24 07:39:08;;;;;;;1.88;1.10;;;;;;;11.52;74.91;98233.13;4904799;29;20045;-82
2022/09/24 07:41:35;;;;;;;1.20;0.85;;;;;;;11.49;74.57;98220.22;4886117;29;20045;-85
2022/09/24 07:44:01;;;;;;;1.40;0.98;;;;;;;11.36;74.25;98199.00;4878478;29;20052;-84
2022/09/24 07:46:30;;;;;;;1.75;1.10;;;;;;;11.37;74.54;98204.13;4900696;29;20053;-83
2022/09/24 07:48:58;;;;;;;1.13;0.80;;;;;;;11.18;74.31;98177.94;4868606;29;20126;-82
2022/09/24 07:51:26;;;;;;;3.20;0.93;;;;;;;11.20;74.34;98160.53;4906101;29;20140;-82
2022/09/24 07:53:53;;;;;;;1.63;0.90;;;;;;;11.55;74.32;98217.38;4878622;29;20044;-85
2022/09/24 07:56:20;;;;;;;2.53;1.05;;;;;;;11.22;74.54;98160.44;4880557;29;20512;-82
2022/09/24 07:58:50;;;;;;;1.25;0.80;;;;;;;11.35;74.12;98184.28;4898802;29;20083;-83
2022/09/24 08:01:18;;;;;;;1.42;0.88;;;;;;;11.30;74.57;98176.66;4866059;29;20071;-85
2022/09/24 08:03:46;;;;;;;1.83;1.00;;;;;;;11.21;74.40;98148.34;4882256;29;20478;-84
2022/09/24 08:06:13;;;;;;;1.05;0.95;;;;;;;11.33;74.28;98171.31;4884760;29;20052;-80
2022/09/24 08:08:48;;;;;;;1.52;1.10;;;;;;;11.20;74.24;98144.91;4901059;29;20045;-79
2022/09/24 08:11:16;;;;;;;1.60;0.90;;;;;;;11.39;74.35;98162.44;4893899;29;20067;-82
2022/09/24 08:13:45;;;;;;;1.40;0.80;;;;;;;11.69;74.06;98207.28;4915980;29;20048;-81
2022/09/24 08:16:12;;;;;;;1.40;1.00;;;;;;;11.50;74.51;98168.06;4906464;29;20048;-82
2022/09/24 08:18:38;;;;;;;1.65;0.90;;;;;;;11.38;74.51;98145.09;4900237;29;20043;-82
2022/09/24 08:21:10;;;;;;;3.13;1.10;;;;;;;11.50;74.17;98149.00;4899613;29;20280;-83
2022/09/24 08:23:39;;;;;;;2.08;1.30;;;;;;;11.74;73.86;98192.31;4897721;29;20543;-84
2022/09/24 08:26:06;;;;;;;2.15;1.20;;;;;;;11.45;74.13;98150.00;4864980;29;20044;-85
2022/09/24 08:28:35;;;;;;;1.85;1.00;;;;;;;11.48;73.70;98146.41;4867547;29;20377;-87
2022/09/24 08:31:06;;;;;;;3.85;1.45;;;;;;;11.73;74.08;98192.38;4897082;29;20040;-83
2022/09/24 08:33:32;;;;;;;3.07;1.30;;;;;;;11.60;74.10;98155.50;4896335;29;20680;-85
2022/09/24 08:36:00;;;;;;;1.35;1.20;;;;;;;11.69;74.07;98173.41;4896561;29;20043;-81
2022/09/24 08:38:27;;;;;;;2.10;1.30;;;;;;;11.90;74.08;98186.50;4900342;29;20052;-83
2022/09/24 08:41:24;;;;;;;1.90;0.70;;;;;;;11.90;73.72;98181.28;4872106;29;20144;-83
2022/09/24 08:47:29;;;;;;;2.08;1.20;;;;;;;11.69;73.80;98156.94;4868486;29;20056;-84
2022/09/24 08:50:14;;;;;;;2.70;1.20;;;;;;;11.64;74.14;98144.06;4848800;29;20056;-85
2022/09/24 08:52:49;;;;;;;2.08;1.10;;;;;;;11.96;73.93;98170.63;4894130;29;20067;-83
2022/09/24 08:55:42;;;;;;;1.20;0.90;;;;;;;11.97;73.91;98177.53;4869020;29;20044;-80
2022/09/24 08:58:31;;;;;;;1.83;1.10;;;;;;;11.97;74.01;98176.66;4896324;29;20040;-82
2022/09/24 09:01:06;;;;;;;1.67;1.20;;;;;;;11.97;73.88;98167.09;4897473;29;20171;-82
2022/09/24 09:03:38;;;;;;;3.08;1.27;;;;;;;11.92;73.82;98173.41;4891432;29;20071;-84
2022/09/24 09:06:33;;;;;;;6.80;2.60;;;;;;;11.89;73.78;98176.97;4898393;29;20056;-83
2022/09/24 09:09:42;;;;;;;2.42;1.50;;;;;;;11.68;73.79;98140.44;4847532;29;20569;-81
2022/09/24 09:12:19;;;;;;;1.98;1.45;;;;;;;11.66;74.03;98126.63;4858404;29;20109;-83
2022/09/24 09:14:48;;;;;;;2.15;1.15;;;;;;;11.92;74.04;98165.59;4891713;29;20056;-83
2022/09/24 09:18:08;;;;;;;1.85;1.27;;;;;;;11.90;73.68;98160.44;4900078;29;20041;-82
2022/09/24 09:20:45;;;;;;;2.55;1.10;;;;;;;11.80;74.01;98151.31;4873145;29;20055;-82
2022/09/24 09:23:45;;;;;;;1.73;1.20;;;;;;;11.77;73.67;98165.28;4899566;29;20044;-86
2022/09/24 09:26:17;;;;;;;3.35;1.30;;;;;;;11.35;73.90;98098.34;4911743;29;20056;-85
2022/09/24 09:28:48;;;;;;;1.15;0.90;;;;;;;11.75;74.01;98161.88;4898022;29;20104;-84
2022/09/24 09:34:54;;;;;;;2.53;1.20;;;;;;;11.71;73.85;98150.75;4897790;29;20055;-85
2022/09/24 09:38:02;;;;;;;3.63;2.00;;;;;;;11.20;74.04;98055.53;4896990;29;20093;-87
2022/09/24 09:40:40;;;;;;;1.55;1.10;;;;;;;11.37;74.42;98075.69;4890002;29;21513;-86
2022/09/24 09:43:46;;;;;;;2.45;1.40;;;;;;;11.72;74.38;98115.97;4893388;29;20100;-85
2022/09/24 09:46:26;;;;;;;3.70;1.40;;;;;;;11.88;74.36;98141.41;4898115;29;20048;-89
2022/09/24 09:48:58;;;;;;;2.75;1.40;;;;;;;11.81;74.35;98130.38;4881409;29;20100;-85
2022/09/24 09:51:40;;;;;;;2.38;1.20;;;;;;;11.38;73.72;98069.59;4888214;29;20040;-86
2022/09/24 09:54:42;;;;;;;3.75;1.48;;;;;;;11.24;74.11;98051.91;4890418;29;20068;-86
2022/09/24 09:57:16;;;;;;;2.15;1.20;;;;;;;11.36;74.00;98074.00;4881574;29;20048;-87
2022/09/24 09:59:47;;;;;;;1.40;1.15;;;;;;;11.30;73.76;98067.28;4893054;29;20051;-83
2022/09/24 10:02:24;;;;;;;2.85;1.50;;;;;;;11.50;74.12;98102.94;4880567;29;20372;-84
2022/09/24 10:05:05;;;;;;;2.42;1.35;;;;;;;11.62;73.93;98127.66;4898672;29;20085;-83
2022/09/24 10:07:46;;;;;;;3.28;1.67;;;;;;;11.66;74.09;98126.63;4891371;29;20055;-85
2022/09/24 10:10:19;;;;;;;1.88;1.30;;;;;;;11.67;73.98;98138.75;4884514;29;20040;-86
2022/09/24 10:12:46;;;;;;;3.47;1.33;;;;;;;11.59;74.10;98119.94;4900226;29;20044;-86
2022/09/24 10:15:19;;;;;;;1.50;1.17;;;;;;;11.53;74.23;98113.25;4886803;29;20080;-85
2022/09/24 10:17:49;;;;;;;1.75;1.20;;;;;;;11.62;74.19;98113.78;4901460;29;20055;-84
2022/09/24 10:20:18;;;;;;;2.78;1.38;;;;;;;11.72;74.09;98134.19;4883181;29;20040;-86
2022/09/24 10:23:05;;;;;;;2.05;1.50;;;;;;;11.63;74.41;98121.53;4900714;29;20052;-85
2022/09/24 10:25:36;;;;;;;4.40;1.48;;;;;;;11.73;74.46;98142.84;4895239;29;20073;-84
2022/09/24 10:30:59;;;;;;;3.33;1.40;;;;;;;11.75;74.33;98141.03;4900705;29;20051;-83
2022/09/24 10:33:35;;;;;;;2.38;1.20;;;;;;;11.42;74.65;98092.81;4905815;29;20048;-85
2022/09/24 10:36:28;;;;;;;2.20;1.30;;;;;;;11.69;74.03;98136.09;4882507;29;20071;-83
2022/09/24 10:39:15;;;;;;;3.65;1.52;;;;;;;11.70;74.37;98133.41;4869515;29;20092;-84
2022/09/24 10:41:50;;;;;;;3.38;1.40;;;;;;;11.43;74.28;98091.09;4900937;29;20116;-83
2022/09/24 10:44:42;;;;;;;2.85;1.48;;;;;;;11.68;74.39;98134.41;4907179;29;20060;-84
2022/09/24 10:47:20;;;;;;;4.68;1.67;;;;;;;11.59;74.36;98130.38;4897478;29;20053;-85
2022/09/24 10:50:24;;;;;;;1.85;1.38;;;;;;;11.54;74.50;98127.97;4876998;29;20068;-84
2022/09/24 10:52:56;;;;;;;2.70;1.48;;;;;;;11.50;74.54;98125.53;4910770;29;20075;-82
2022/09/24 10:55:41;;;;;;;3.30;1.40;;;;;;;11.36;73.94;98100.03;4879814;29;20418;-84
2022/09/24 10:59:01;;;;;;;3.08;1.58;;;;;;;11.53;74.31;98125.44;4904632;29;20041;-85
2022/09/24 11:02:20;;;;;;;2.08;1.50;;;;;;;11.35;74.05;98085.31;4889750;29;20044;-82
2022/09/24 11:04:57;;;;;;;1.40;1.20;;;;;;;11.47;74.40;98116.09;4891106;29;20057;-81
2022/09/24 11:07:45;;;;;;;3.20;1.30;;;;;;;11.47;74.23;98120.44;4897276;29;20045;-83
2022/09/24 11:10:11;;;;;;;4.22;2.45;;;;;;;11.40;74.45;98112.03;4912985;29;20112;-83
2022/09/24 11:12:54;;;;;;;2.55;1.80;;;;;;;11.35;74.43;98114.84;4888197;29;20055;-83
2022/09/24 11:15:52;;;;;;;1.60;1.30;;;;;;;11.47;74.89;98117.84;4889661;29;20095;-85
2022/09/24 11:18:25;;;;;;;2.05;1.33;;;;;;;11.55;74.45;98116.63;4909002;29;20056;-83
2022/09/24 11:21:14;;;;;;;2.17;1.20;;;;;;;11.22;74.48;98061.50;4899787;29;20049;-85
2022/09/24 11:23:46;;;;;;;1.95;1.13;;;;;;;11.65;74.61;98109.28;4888785;29;20044;-87
2022/09/24 11:26:40;;;;;;;2.15;1.20;;;;;;;11.68;74.80;98106.56;4885453;29;20079;-83
2022/09/24 11:29:33;;;;;;;1.98;1.40;;;;;;;11.74;74.41;98102.88;4903367;29;20047;-82
2022/09/24 11:32:22;;;;;;;2.90;1.20;;;;;;;11.74;74.72;98097.66;4880676;29;20053;-80
2022/09/24 11:35:06;;;;;;;1.98;1.40;;;;;;;11.74;74.59;98082.88;4911500;29;20487;-81
2022/09/24 11:37:45;;;;;;;1.95;1.50;;;;;;;11.64;74.81;98052.06;4908379;29;20475;-84
2022/09/24 11:40:38;;;;;;;1.70;1.40;;;;;;;11.89;74.82;98090.97;4878950;29;20056;-83
2022/09/24 11:43:42;;;;;;;3.17;1.60;;;;;;;11.93;74.77;98087.31;4906456;29;20052;-83
2022/09/24 11:46:37;;;;;;;4.03;1.40;;;;;;;11.95;74.51;98090.72;4880614;29;20040;-84
2022/09/24 11:49:27;;;;;;;2.92;1.60;;;;;;;11.99;74.56;98087.09;4879275;29;20083;-83
2022/09/24 11:52:11;;;;;;;1.90;1.33;;;;;;;11.83;74.53;98062.53;4913777;29;20032;-81
2022/09/24 11:54:56;;;;;;;2.25;1.50;;;;;;;12.07;74.71;98083.31;4911483;29;20109;-84
2022/09/24 11:58:04;;;;;;;2.53;1.55;;;;;;;12.16;74.20;98086.38;4877431;29;20154;-83
2022/09/24 12:00:39;;;;;;;2.55;1.70;;;;;;;11.98;74.39;98051.50;4883278;29;20048;-83
2022/09/24 12:03:53;;;;;;;3.15;2.00;;;;;;;11.69;74.23;97984.97;4899499;29;20044;-87
2022/09/24 12:07:19;;;;;;;2.38;1.77;;;;;;;12.25;74.47;98072.09;4897942;29;20048;-83
2022/09/24 12:10:06;;;;;;;2.30;1.70;;;;;;;12.34;74.26;98081.31;4895014;29;20044;-83
2022/09/24 12:12:40;;;;;;;2.35;1.80;;;;;;;12.23;74.05;98073.94;4906127;29;20532;-82
2022/09/24 12:15:23;;;;;;;1.98;1.58;;;;;;;12.26;74.38;98083.38;4903792;29;20047;-82
2022/09/24 12:18:16;;;;;;;3.38;1.80;;;;;;;12.20;73.91;98085.34;4892402;29;20049;-85
2022/09/24 12:21:11;;;;;;;2.20;1.80;;;;;;;12.13;74.06;98088.28;4884138;29;20147;-83